Time;durP1;ratioP1;P1;durP2;ratioP2;P2;SDS_P1;SDS_P2;PMS_P1;PMS_P2;Temp;Humidity;BMP_temperature;BMP_pressure;BME280_temperature;BME280_humidity;BME280_pressure;Samples;Min_cycle;Max_cycle;Signal;HPM_P1;HPM_P2
2023/10/25 00:00:43;;;;;;;16.55;8.50;;;;;;;;;;6247032;23;20039;-80
2023/10/25 00:03:15;;;;;;;15.00;8.65;;;;;;;;;;6246367;23;20443;-80
2023/10/25 00:05:46;;;;;;;16.38;7.75;;;;;;;;;;6256916;23;20021;-80
2023/10/25 00:08:16;;;;;;;15.63;7.68;;;;;;;;;;6218708;23;20016;-80
2023/10/25 00:10:46;;;;;;;19.63;8.48;;;;;;;;;;6246724;23;20027;-79
2023/10/25 00:13:16;;;;;;;18.20;8.15;;;;;;;;;;6246267;23;20016;-79
2023/10/25 00:15:45;;;;;;;18.92;8.90;;;;;;;;;;6246210;23;20015;-80
2023/10/25 00:18:15;;;;;;;20.13;8.55;;;;;;;;;;6245847;23;20020;-80
2023/10/25 00:20:45;;;;;;;17.73;8.45;;;;;;;;;;6245116;23;20447;-80
2023/10/25 00:23:15;;;;;;;19.70;8.65;;;;;;;;;;6244683;23;20012;-80
2023/10/25 00:25:47;;;;;;;17.67;8.85;;;;;;;;;;6244611;23;20395;-80
2023/10/25 00:28:19;;;;;;;20.67;8.10;;;;;;;;;;6254701;23;20019;-81
2023/10/25 00:30:49;;;;;;;14.63;8.07;;;;;;;;;;6228280;23;20027;-80
2023/10/25 00:33:19;;;;;;;16.80;7.90;;;;;;;;;;6216951;23;20447;-81
2023/10/25 00:35:50;;;;;;;15.90;8.75;;;;;;;;;;6211978;23;20024;-80
2023/10/25 00:38:21;;;;;;;23.00;8.52;;;;;;;;;;6255184;23;20012;-80
2023/10/25 00:40:51;;;;;;;18.27;8.48;;;;;;;;;;6193019;23;20469;-80
2023/10/25 00:43:22;;;;;;;20.52;8.80;;;;;;;;;;6244537;23;20012;-80
2023/10/25 00:46:16;;;;;;;19.23;9.25;;;;;;;;;;6228473;23;20468;-80
2023/10/25 00:48:47;;;;;;;17.95;8.50;;;;;;;;;;6244621;23;20020;-80
2023/10/25 00:51:20;;;;;;;19.77;9.13;;;;;;;;;;6254820;23;20008;-80
2023/10/25 00:53:53;;;;;;;16.58;8.65;;;;;;;;;;6254833;23;20012;-82
2023/10/25 00:56:25;;;;;;;15.07;8.05;;;;;;;;;;6216264;23;20023;-81
2023/10/25 00:58:56;;;;;;;13.65;7.72;;;;;;;;;;6255352;23;20008;-81
2023/10/25 01:01:29;;;;;;;15.70;7.63;;;;;;;;;;6228864;23;20008;-80
2023/10/25 01:04:00;;;;;;;25.88;9.30;;;;;;;;;;6255432;23;20454;-81
2023/10/25 01:06:30;;;;;;;13.75;7.15;;;;;;;;;;6244842;23;20031;-81
2023/10/25 01:09:00;;;;;;;15.23;8.00;;;;;;;;;;6192922;23;20031;-81
2023/10/25 01:11:30;;;;;;;16.15;7.63;;;;;;;;;;6244774;23;20362;-81
2023/10/25 01:14:01;;;;;;;15.55;7.75;;;;;;;;;;6244734;23;20130;-81
2023/10/25 01:16:31;;;;;;;15.93;7.80;;;;;;;;;;6244130;23;20020;-81
2023/10/25 01:19:02;;;;;;;15.85;8.07;;;;;;;;;;6217179;23;20422;-80
2023/10/25 01:21:33;;;;;;;15.82;8.13;;;;;;;;;;6244612;23;20008;-80
2023/10/25 01:24:03;;;;;;;18.25;8.38;;;;;;;;;;6245435;23;20071;-82
2023/10/25 01:26:34;;;;;;;14.57;7.65;;;;;;;;;;6246411;23;20016;-80
2023/10/25 01:29:05;;;;;;;14.98;7.85;;;;;;;;;;6228783;23;20035;-81
2023/10/25 01:31:35;;;;;;;16.70;8.07;;;;;;;;;;6245783;23;20016;-81
2023/10/25 01:34:05;;;;;;;18.40;8.20;;;;;;;;;;6246681;23;20020;-82
2023/10/25 01:36:36;;;;;;;15.85;8.00;;;;;;;;;;6246658;23;20016;-81
2023/10/25 01:39:06;;;;;;;17.50;8.05;;;;;;;;;;6246431;23;20021;-81
2023/10/25 01:41:35;;;;;;;14.68;7.93;;;;;;;;;;6246347;23;20020;-81
2023/10/25 01:44:05;;;;;;;19.38;8.07;;;;;;;;;;6246954;23;20015;-80
2023/10/25 01:46:35;;;;;;;14.77;7.47;;;;;;;;;;6217974;23;20020;-81
2023/10/25 01:49:06;;;;;;;14.50;7.10;;;;;;;;;;6247387;23;20012;-81
2023/10/25 01:51:36;;;;;;;16.23;7.78;;;;;;;;;;6246431;23;20016;-81
2023/10/25 01:54:07;;;;;;;16.60;7.57;;;;;;;;;;6246563;23;20008;-81
2023/10/25 01:56:37;;;;;;;14.65;6.97;;;;;;;;;;6219387;23;20016;-81
2023/10/25 01:59:07;;;;;;;16.77;7.60;;;;;;;;;;6218678;23;20451;-81
2023/10/25 02:01:37;;;;;;;18.15;7.00;;;;;;;;;;6218151;23;20019;-81
2023/10/25 02:04:08;;;;;;;15.85;6.88;;;;;;;;;;6218854;23;20031;-81
2023/10/25 02:06:40;;;;;;;15.82;7.60;;;;;;;;;;6218595;23;20012;-81
2023/10/25 02:09:11;;;;;;;15.50;7.03;;;;;;;;;;6256758;23;20020;-81
2023/10/25 02:11:41;;;;;;;14.68;7.70;;;;;;;;;;6194663;23;20020;-81
2023/10/25 02:14:11;;;;;;;13.68;7.05;;;;;;;;;;6246776;23;20343;-81
2023/10/25 02:16:42;;;;;;;15.75;7.70;;;;;;;;;;6217886;23;20392;-81
2023/10/25 02:19:12;;;;;;;15.13;7.47;;;;;;;;;;6218978;23;20447;-81
2023/10/25 02:21:43;;;;;;;14.50;6.80;;;;;;;;;;6256485;23;20072;-81
2023/10/25 02:24:16;;;;;;;13.45;6.57;;;;;;;;;;6218894;23;20031;-81
2023/10/25 02:26:46;;;;;;;13.43;7.20;;;;;;;;;;6211797;23;20020;-81
2023/10/25 02:29:16;;;;;;;15.10;6.72;;;;;;;;;;6215893;23;20017;-81
2023/10/25 02:31:46;;;;;;;15.82;6.82;;;;;;;;;;6215815;23;20035;-81
2023/10/25 02:34:16;;;;;;;15.23;6.70;;;;;;;;;;6225654;23;20020;-81
2023/10/25 02:36:47;;;;;;;15.52;7.90;;;;;;;;;;6214314;23;20453;-81
2023/10/25 02:39:17;;;;;;;18.80;7.20;;;;;;;;;;6215729;23;20020;-81
2023/10/25 02:41:47;;;;;;;13.95;6.75;;;;;;;;;;6214555;23;20013;-81
2023/10/25 02:44:17;;;;;;;15.40;7.57;;;;;;;;;;6215615;23;20013;-80
2023/10/25 02:46:49;;;;;;;13.40;7.00;;;;;;;;;;6212542;23;20024;-81
2023/10/25 02:49:19;;;;;;;14.82;6.90;;;;;;;;;;6215317;23;20017;-81
2023/10/25 02:51:49;;;;;;;16.40;7.32;;;;;;;;;;6215699;23;20020;-81
2023/10/25 02:54:20;;;;;;;14.60;7.30;;;;;;;;;;6212821;23;20360;-83
2023/10/25 02:56:49;;;;;;;13.80;6.88;;;;;;;;;;6214189;23;20021;-82
2023/10/25 02:59:19;;;;;;;16.50;7.28;;;;;;;;;;6215160;23;20027;-81
2023/10/25 03:01:49;;;;;;;14.95;7.05;;;;;;;;;;6217561;23;20021;-81
2023/10/25 03:04:19;;;;;;;14.27;7.55;;;;;;;;;;6216627;23;20020;-81
2023/10/25 03:06:49;;;;;;;17.05;7.38;;;;;;;;;;6216599;23;20036;-81
2023/10/25 03:09:20;;;;;;;16.40;7.70;;;;;;;;;;6214317;23;20032;-81
2023/10/25 03:11:50;;;;;;;16.08;7.30;;;;;;;;;;6216899;23;20014;-81
2023/10/25 03:14:20;;;;;;;16.35;6.88;;;;;;;;;;6213729;23;20348;-81
2023/10/25 03:16:52;;;;;;;18.45;7.70;;;;;;;;;;6214044;23;20028;-80
2023/10/25 03:19:23;;;;;;;18.80;7.35;;;;;;;;;;6227146;23;20016;-82
2023/10/25 03:21:53;;;;;;;19.77;7.93;;;;;;;;;;6215979;23;20435;-81
2023/10/25 03:24:24;;;;;;;18.80;8.38;;;;;;;;;;6216408;23;20428;-82
2023/10/25 03:26:54;;;;;;;17.30;8.48;;;;;;;;;;6245220;23;20023;-82
2023/10/25 03:29:24;;;;;;;18.08;6.93;;;;;;;;;;6218574;23;20027;-81
2023/10/25 03:31:57;;;;;;;14.80;7.03;;;;;;;;;;6220387;23;20016;-81
2023/10/25 03:34:28;;;;;;;15.73;6.70;;;;;;;;;;6257105;23;20432;-81
2023/10/25 03:36:58;;;;;;;16.52;7.00;;;;;;;;;;6246406;23;20469;-81
2023/10/25 03:39:28;;;;;;;14.63;7.10;;;;;;;;;;6246566;23;20070;-81
2023/10/25 03:41:58;;;;;;;17.80;7.50;;;;;;;;;;6220034;23;20016;-81
2023/10/25 03:44:30;;;;;;;18.00;7.85;;;;;;;;;;6257248;23;20023;-81
2023/10/25 03:47:01;;;;;;;19.95;7.78;;;;;;;;;;6246379;23;20336;-81
2023/10/25 03:49:32;;;;;;;19.65;8.60;;;;;;;;;;6219103;23;20343;-82
2023/10/25 03:52:03;;;;;;;20.23;8.30;;;;;;;;;;6256169;23;20478;-81
2023/10/25 03:54:38;;;;;;;22.23;8.10;;;;;;;;;;6256638;23;20008;-81
2023/10/25 03:57:09;;;;;;;25.88;9.18;;;;;;;;;;6219838;23;20016;-81
2023/10/25 03:59:39;;;;;;;22.67;7.78;;;;;;;;;;6246921;23;20423;-81
2023/10/25 04:02:09;;;;;;;16.85;8.25;;;;;;;;;;6246487;23;20012;-83
2023/10/25 04:04:39;;;;;;;20.88;8.25;;;;;;;;;;6220771;23;20016;-81
2023/10/25 04:07:12;;;;;;;23.08;7.80;;;;;;;;;;6245890;23;20324;-84
2023/10/25 04:09:42;;;;;;;24.45;8.35;;;;;;;;;;6219238;23;20195;-83
2023/10/25 04:12:13;;;;;;;20.13;7.90;;;;;;;;;;6256581;23;20016;-81
2023/10/25 04:14:47;;;;;;;18.17;7.97;;;;;;;;;;6246681;23;20015;-82
2023/10/25 04:17:17;;;;;;;28.88;9.63;;;;;;;;;;6194766;23;20320;-82
2023/10/25 04:19:47;;;;;;;20.02;8.20;;;;;;;;;;6220367;23;20069;-81
2023/10/25 04:22:19;;;;;;;26.90;8.18;;;;;;;;;;6256717;23;20015;-81
2023/10/25 04:24:49;;;;;;;22.05;7.90;;;;;;;;;;6255767;23;20439;-82
2023/10/25 04:27:19;;;;;;;27.38;8.73;;;;;;;;;;6219479;23;20324;-82
2023/10/25 04:29:49;;;;;;;21.40;7.85;;;;;;;;;;6245828;23;20020;-82
2023/10/25 04:32:19;;;;;;;18.25;8.10;;;;;;;;;;6246730;23;20020;-82
2023/10/25 04:34:50;;;;;;;19.67;8.27;;;;;;;;;;6245694;23;20016;-81
2023/10/25 04:37:20;;;;;;;18.77;6.63;;;;;;;;;;6257113;23;20320;-82
2023/10/25 04:39:51;;;;;;;22.23;8.23;;;;;;;;;;6245692;23;20012;-83
2023/10/25 04:42:21;;;;;;;18.50;8.13;;;;;;;;;;6195363;23;20047;-81
2023/10/25 04:44:51;;;;;;;16.50;8.15;;;;;;;;;;6193042;23;20027;-82
2023/10/25 04:47:20;;;;;;;15.35;7.72;;;;;;;;;;6246330;23;20040;-82
2023/10/25 04:49:50;;;;;;;16.70;7.93;;;;;;;;;;6246131;23;20023;-82
2023/10/25 04:52:20;;;;;;;17.60;8.63;;;;;;;;;;6245728;23;20019;-82
2023/10/25 04:54:51;;;;;;;17.50;7.93;;;;;;;;;;6219375;23;20435;-81
2023/10/25 04:57:21;;;;;;;18.17;8.15;;;;;;;;;;6219592;23;20020;-82
2023/10/25 04:59:51;;;;;;;19.45;8.40;;;;;;;;;;6246001;23;20332;-82
2023/10/25 05:02:22;;;;;;;22.48;7.72;;;;;;;;;;6255885;23;20027;-82
2023/10/25 05:04:52;;;;;;;17.00;7.88;;;;;;;;;;6245133;23;20050;-81
2023/10/25 05:07:23;;;;;;;25.98;8.50;;;;;;;;;;6218877;23;20071;-81
2023/10/25 05:09:54;;;;;;;19.63;8.43;;;;;;;;;;6219448;23;20012;-82
2023/10/25 05:12:41;;;;;;;18.63;9.15;;;;;;;;;;6245295;23;20379;-81
2023/10/25 05:15:13;;;;;;;27.00;8.88;;;;;;;;;;6255739;23;20013;-80
2023/10/25 05:17:45;;;;;;;20.13;9.82;;;;;;;;;;6255581;23;20039;-82
2023/10/25 05:20:16;;;;;;;27.55;9.80;;;;;;;;;;6256365;23;20013;-83
2023/10/25 05:22:51;;;;;;;17.10;8.63;;;;;;;;;;6256288;23;20008;-82
2023/10/25 05:25:22;;;;;;;25.88;8.93;;;;;;;;;;6253010;23;20427;-81
2023/10/25 05:27:53;;;;;;;16.45;8.43;;;;;;;;;;6255537;23;20008;-81
2023/10/25 05:30:23;;;;;;;25.00;9.57;;;;;;;;;;6245390;23;20436;-81
2023/10/25 05:33:03;;;;;;;19.73;9.00;;;;;;;;;;6246150;23;20034;-82
2023/10/25 05:35:34;;;;;;;22.27;8.95;;;;;;;;;;6218893;23;20024;-82
2023/10/25 05:38:05;;;;;;;17.70;7.90;;;;;;;;;;6218811;23;20027;-82
2023/10/25 05:40:36;;;;;;;18.73;9.13;;;;;;;;;;6255820;23;20368;-81
2023/10/25 05:43:10;;;;;;;22.52;8.80;;;;;;;;;;6246086;23;20012;-82
2023/10/25 05:45:42;;;;;;;24.50;9.68;;;;;;;;;;6255895;23;20012;-83
2023/10/25 05:48:15;;;;;;;;;;;;;;;;;;6195572;23;20023;-82
2023/10/25 05:50:50;;;;;;;18.90;9.20;;;;;;;;;;6259259;23;19915;-82
2023/10/25 05:53:21;;;;;;;19.13;9.23;;;;;;;;;;6227381;23;20012;-83
2023/10/25 05:55:51;;;;;;;18.30;9.20;;;;;;;;;;6204235;23;20347;-83
2023/10/25 05:58:21;;;;;;;21.17;9.52;;;;;;;;;;6251737;23;20022;-82
2023/10/25 06:00:55;;;;;;;16.77;8.43;;;;;;;;;;6257448;23;20020;-83
2023/10/25 06:03:28;;;;;;;25.77;9.48;;;;;;;;;;6229945;23;20012;-82
2023/10/25 06:06:01;;;;;;;19.55;8.80;;;;;;;;;;6256739;23;20016;-82
2023/10/25 06:08:32;;;;;;;21.27;8.98;;;;;;;;;;6229648;23;20012;-82
2023/10/25 06:11:04;;;;;;;19.92;9.10;;;;;;;;;;6255633;23;20012;-82
2023/10/25 06:13:34;;;;;;;18.30;8.20;;;;;;;;;;6245373;23;20319;-83
2023/10/25 06:16:04;;;;;;;20.00;8.77;;;;;;;;;;6246213;23;20013;-82
2023/10/25 06:18:35;;;;;;;19.00;9.10;;;;;;;;;;6248122;23;20126;-83
2023/10/25 06:21:05;;;;;;;22.45;8.63;;;;;;;;;;6248056;23;20016;-82
2023/10/25 06:23:35;;;;;;;21.98;9.73;;;;;;;;;;6196578;23;20024;-82
2023/10/25 06:26:04;;;;;;;19.63;9.63;;;;;;;;;;6247432;23;20343;-82
2023/10/25 06:28:35;;;;;;;19.10;9.27;;;;;;;;;;6246963;23;20347;-82
2023/10/25 06:31:05;;;;;;;18.98;9.20;;;;;;;;;;6248076;23;20027;-81
2023/10/25 06:33:35;;;;;;;19.58;8.55;;;;;;;;;;6247613;23;20016;-82
2023/10/25 06:36:07;;;;;;;25.73;9.45;;;;;;;;;;6246743;23;20012;-82
2023/10/25 06:38:38;;;;;;;22.42;9.68;;;;;;;;;;6257299;23;20012;-82
2023/10/25 06:41:19;;;;;;;17.70;8.63;;;;;;;;;;6220551;23;20020;-83
2023/10/25 06:43:50;;;;;;;21.08;9.25;;;;;;;;;;6257841;23;20013;-81
2023/10/25 06:46:21;;;;;;;20.60;9.23;;;;;;;;;;6247544;23;20016;-81
2023/10/25 06:48:54;;;;;;;21.52;9.68;;;;;;;;;;6257392;23;20008;-83
2023/10/25 06:51:25;;;;;;;21.02;9.82;;;;;;;;;;6219079;23;20035;-83
2023/10/25 06:53:56;;;;;;;19.67;9.38;;;;;;;;;;6258273;23;20012;-82
2023/10/25 06:56:26;;;;;;;19.98;9.57;;;;;;;;;;6246489;23;20020;-82
2023/10/25 06:58:57;;;;;;;17.38;9.55;;;;;;;;;;6246995;23;20027;-83
2023/10/25 07:01:31;;;;;;;20.65;9.82;;;;;;;;;;6247769;23;20020;-81
2023/10/25 07:04:03;;;;;;;21.50;10.27;;;;;;;;;;6256818;23;20013;-81
2023/10/25 07:06:33;;;;;;;;;;;;;;;;;;6257956;23;20016;-81
2023/10/25 07:09:04;;;;;;;18.75;8.70;;;;;;;;;;6246852;23;19923;-82
2023/10/25 07:11:34;;;;;;;21.98;9.32;;;;;;;;;;6257022;23;20015;-81
2023/10/25 07:14:04;;;;;;;23.67;9.77;;;;;;;;;;6221314;23;20331;-82
2023/10/25 07:16:36;;;;;;;22.58;9.60;;;;;;;;;;6247281;23;20043;-83
2023/10/25 07:19:06;;;;;;;29.63;10.75;;;;;;;;;;6231453;23;20458;-81
2023/10/25 07:21:36;;;;;;;21.08;9.80;;;;;;;;;;6247199;23;20012;-83
2023/10/25 07:24:07;;;;;;;20.02;9.30;;;;;;;;;;6247003;23;20012;-81
2023/10/25 07:26:37;;;;;;;26.52;9.90;;;;;;;;;;6248458;22;20026;-83
2023/10/25 07:29:10;;;;;;;18.63;9.68;;;;;;;;;;6256661;23;20016;-81
2023/10/25 07:31:40;;;;;;;22.13;10.45;;;;;;;;;;6220530;23;20020;-82
2023/10/25 07:34:11;;;;;;;21.48;10.00;;;;;;;;;;6256585;23;20020;-81
2023/10/25 07:36:41;;;;;;;22.02;9.93;;;;;;;;;;6220213;23;20463;-81
2023/10/25 07:39:15;;;;;;;29.95;11.07;;;;;;;;;;6246966;23;20024;-83
2023/10/25 07:41:45;;;;;;;20.90;9.27;;;;;;;;;;6256190;23;20019;-82
2023/10/25 07:44:15;;;;;;;20.85;9.63;;;;;;;;;;6246199;23;20031;-81
2023/10/25 07:46:45;;;;;;;20.15;9.57;;;;;;;;;;6219481;23;20016;-81
2023/10/25 07:49:15;;;;;;;18.80;9.40;;;;;;;;;;6246222;23;20012;-81
2023/10/25 07:51:45;;;;;;;21.23;10.07;;;;;;;;;;6245902;23;20016;-81
2023/10/25 07:54:15;;;;;;;24.25;10.23;;;;;;;;;;6218694;23;20043;-82
2023/10/25 07:56:46;;;;;;;26.45;10.40;;;;;;;;;;6218378;23;20028;-82
2023/10/25 07:59:20;;;;;;;27.52;10.05;;;;;;;;;;6256490;23;20019;-83
2023/10/25 08:01:51;;;;;;;26.35;10.18;;;;;;;;;;6246612;23;20020;-82
2023/10/25 08:04:22;;;;;;;20.83;9.45;;;;;;;;;;6256199;23;20451;-83
2023/10/25 08:06:53;;;;;;;21.60;9.77;;;;;;;;;;6218814;23;20335;-81
2023/10/25 08:09:23;;;;;;;20.85;9.55;;;;;;;;;;6218929;23;20024;-80
2023/10/25 08:11:53;;;;;;;20.50;10.23;;;;;;;;;;6246316;23;20020;-82
2023/10/25 08:14:23;;;;;;;18.88;9.73;;;;;;;;;;6245745;23;20012;-82
2023/10/25 08:16:53;;;;;;;19.25;9.65;;;;;;;;;;6246525;23;20012;-82
2023/10/25 08:19:23;;;;;;;24.67;10.00;;;;;;;;;;6245852;23;20012;-82
2023/10/25 08:21:53;;;;;;;22.23;9.55;;;;;;;;;;6245736;23;20012;-81
2023/10/25 08:24:23;;;;;;;19.63;9.52;;;;;;;;;;6246279;23;20020;-82
2023/10/25 08:26:59;;;;;;;23.00;10.88;;;;;;;;;;6220346;23;20016;-81
2023/10/25 08:29:29;;;;;;;21.25;9.73;;;;;;;;;;6256274;23;20012;-83
2023/10/25 08:31:59;;;;;;;20.42;9.18;;;;;;;;;;6246609;23;20020;-83
2023/10/25 08:34:29;;;;;;;18.88;9.82;;;;;;;;;;6246047;23;20024;-81
2023/10/25 08:37:00;;;;;;;23.05;10.18;;;;;;;;;;6245807;23;20444;-81
2023/10/25 08:39:32;;;;;;;;;;;;;;;;;;6256098;23;20008;-82
2023/10/25 08:42:03;;;;;;;21.50;10.48;;;;;;;;;;6245319;23;19915;-83
2023/10/25 08:44:38;;;;;;;22.23;9.45;;;;;;;;;;6256052;23;20013;-82
2023/10/25 08:47:11;;;;;;;20.88;10.25;;;;;;;;;;6256024;23;20012;-81
2023/10/25 08:49:41;;;;;;;25.45;10.13;;;;;;;;;;6218606;23;20016;-82
2023/10/25 08:52:12;;;;;;;25.73;9.98;;;;;;;;;;6217555;23;20471;-82
2023/10/25 08:54:42;;;;;;;21.25;10.00;;;;;;;;;;6246324;23;20023;-82
2023/10/25 08:57:12;;;;;;;22.13;10.45;;;;;;;;;;6245168;23;20016;-82
2023/10/25 08:59:45;;;;;;;20.33;10.30;;;;;;;;;;6245926;23;20019;-82
2023/10/25 09:02:17;;;;;;;26.23;10.38;;;;;;;;;;6255822;23;20012;-82
2023/10/25 09:05:06;;;;;;;21.15;9.30;;;;;;;;;;6229958;23;20363;-82
2023/10/25 09:07:38;;;;;;;19.98;9.38;;;;;;;;;;6256321;23;20016;-81
2023/10/25 09:10:22;;;;;;;21.80;9.68;;;;;;;;;;6230241;23;20041;-82
2023/10/25 09:12:52;;;;;;;23.08;10.35;;;;;;;;;;6256011;23;20008;-82
2023/10/25 09:15:30;;;;;;;22.88;10.15;;;;;;;;;;6245645;23;20015;-81
2023/10/25 09:18:02;;;;;;;21.52;10.43;;;;;;;;;;6255674;23;20023;-81
2023/10/25 09:20:32;;;;;;;25.50;10.68;;;;;;;;;;6256297;23;20008;-81
2023/10/25 09:23:11;;;;;;;21.30;9.73;;;;;;;;;;6244638;23;20016;-83
2023/10/25 09:25:44;;;;;;;22.10;10.23;;;;;;;;;;6217306;23;20035;-82
2023/10/25 09:28:16;;;;;;;21.13;10.10;;;;;;;;;;6255189;23;20013;-82
2023/10/25 09:30:46;;;;;;;23.08;9.68;;;;;;;;;;6217006;23;20016;-82
2023/10/25 09:33:16;;;;;;;23.33;10.18;;;;;;;;;;6244581;23;20012;-81
2023/10/25 09:35:48;;;;;;;;;;;;;;;;;;6217420;23;20367;-82
2023/10/25 09:38:19;;;;;;;20.35;9.32;;;;;;;;;;6244335;23;20246;-81
2023/10/25 09:40:51;;;;;;;21.52;9.70;;;;;;;;;;6254530;23;20023;-82
2023/10/25 09:43:24;;;;;;;19.88;9.10;;;;;;;;;;6254814;23;20331;-82
2023/10/25 09:45:59;;;;;;;25.98;11.75;;;;;;;;;;6218082;23;20020;-82
2023/10/25 09:48:35;;;;;;;21.25;10.35;;;;;;;;;;6254278;23;20027;-83
2023/10/25 09:51:12;;;;;;;19.60;9.13;;;;;;;;;;6228130;23;20466;-83
2023/10/25 09:53:58;;;;;;;21.20;10.25;;;;;;;;;;6256823;23;20019;-82
2023/10/25 09:56:29;;;;;;;26.20;9.93;;;;;;;;;;6195047;23;20026;-81
2023/10/25 09:59:00;;;;;;;20.73;9.77;;;;;;;;;;6256551;23;20351;-81
2023/10/25 10:01:32;;;;;;;20.55;9.63;;;;;;;;;;6256249;23;20008;-82
2023/10/25 10:04:44;;;;;;;17.05;8.43;;;;;;;;;;6246620;23;20020;-82
2023/10/25 10:07:29;;;;;;;16.27;8.52;;;;;;;;;;6180322;23;20016;-81
2023/10/25 10:10:07;;;;;;;18.33;8.35;;;;;;;;;;6219030;23;20016;-82
2023/10/25 10:12:38;;;;;;;16.58;8.07;;;;;;;;;;6218372;23;20027;-82
2023/10/25 10:15:12;;;;;;;14.45;7.85;;;;;;;;;;6256177;23;20012;-82
2023/10/25 10:17:43;;;;;;;17.10;8.20;;;;;;;;;;6256206;23;20331;-83
2023/10/25 10:20:23;;;;;;;16.92;7.50;;;;;;;;;;6256630;23;20063;-83
2023/10/25 10:23:08;;;;;;;16.63;7.55;;;;;;;;;;6256550;23;20009;-83
2023/10/25 10:25:44;;;;;;;13.80;7.03;;;;;;;;;;6252669;23;20008;-83
2023/10/25 10:28:14;;;;;;;14.48;7.03;;;;;;;;;;6256879;23;20012;-83
2023/10/25 10:30:47;;;;;;;15.68;7.55;;;;;;;;;;6256734;23;20023;-85
2023/10/25 10:33:17;;;;;;;14.45;7.45;;;;;;;;;;6230757;23;20016;-83
2023/10/25 10:35:49;;;;;;;12.88;6.75;;;;;;;;;;6246858;23;20023;-83
2023/10/25 10:38:19;;;;;;;17.60;7.25;;;;;;;;;;6230354;23;20012;-82
2023/10/25 10:40:53;;;;;;;14.93;6.35;;;;;;;;;;6220206;23;20023;-83
2023/10/25 10:43:24;;;;;;;15.55;6.95;;;;;;;;;;6231314;23;20463;-82
2023/10/25 10:45:55;;;;;;;13.45;6.47;;;;;;;;;;6246876;23;20315;-83
2023/10/25 10:48:35;;;;;;;15.60;6.47;;;;;;;;;;6219719;23;20016;-82
2023/10/25 10:51:06;;;;;;;11.15;5.53;;;;;;;;;;6257450;23;20008;-82
2023/10/25 10:53:38;;;;;;;13.73;6.55;;;;;;;;;;6257885;23;20016;-82
2023/10/25 10:56:09;;;;;;;16.00;7.60;;;;;;;;;;6257818;23;20008;-82
2023/10/25 10:58:40;;;;;;;10.93;5.68;;;;;;;;;;6230988;23;20035;-85
2023/10/25 11:01:10;;;;;;;14.20;6.85;;;;;;;;;;6246833;23;20019;-82
2023/10/25 11:03:41;;;;;;;17.90;8.18;;;;;;;;;;6221083;23;20027;-82
2023/10/25 11:06:12;;;;;;;11.25;6.10;;;;;;;;;;6257625;23;20019;-81
2023/10/25 11:08:43;;;;;;;12.88;5.90;;;;;;;;;;6247361;23;20016;-82
2023/10/25 11:11:13;;;;;;;9.23;4.40;;;;;;;;;;6230437;23;20013;-82
2023/10/25 11:13:44;;;;;;;9.50;4.15;;;;;;;;;;6218463;23;20016;-81
2023/10/25 11:16:17;;;;;;;10.98;4.38;;;;;;;;;;6230021;23;20015;-82
2023/10/25 11:18:47;;;;;;;10.73;3.90;;;;;;;;;;6256207;23;20016;-81
2023/10/25 11:21:16;;;;;;;8.77;4.25;;;;;;;;;;6246407;23;20016;-82
2023/10/25 11:23:47;;;;;;;7.38;4.10;;;;;;;;;;6218917;23;20032;-82
2023/10/25 11:26:17;;;;;;;8.15;3.28;;;;;;;;;;6246251;23;20019;-82
2023/10/25 11:28:47;;;;;;;6.32;3.38;;;;;;;;;;6246779;23;20012;-81
2023/10/25 11:31:18;;;;;;;10.85;4.82;;;;;;;;;;6245931;23;20012;-82
2023/10/25 11:33:49;;;;;;;9.25;4.30;;;;;;;;;;6218599;23;20012;-81
2023/10/25 11:36:19;;;;;;;9.20;4.22;;;;;;;;;;6245835;23;20019;-82
2023/10/25 11:38:50;;;;;;;7.35;4.13;;;;;;;;;;6256429;23;20339;-83
2023/10/25 11:41:21;;;;;;;10.45;4.53;;;;;;;;;;6219759;23;20016;-82
2023/10/25 11:43:51;;;;;;;9.57;4.43;;;;;;;;;;6256255;23;20012;-82
2023/10/25 11:46:23;;;;;;;10.57;5.00;;;;;;;;;;6246100;23;20019;-84
2023/10/25 11:49:00;;;;;;;8.75;4.72;;;;;;;;;;6254766;23;20511;-82
2023/10/25 11:51:33;;;;;;;9.98;4.82;;;;;;;;;;6254376;23;20015;-80
2023/10/25 11:54:04;;;;;;;10.07;4.18;;;;;;;;;;6255409;23;20008;-81
2023/10/25 11:56:48;;;;;;;8.10;4.85;;;;;;;;;;6256765;23;20008;-83
2023/10/25 11:59:19;;;;;;;8.75;4.63;;;;;;;;;;6260077;23;20008;-82
2023/10/25 12:01:49;;;;;;;13.90;4.82;;;;;;;;;;6257685;23;20012;-82
2023/10/25 12:04:19;;;;;;;10.27;5.15;;;;;;;;;;6227957;23;20031;-82
2023/10/25 12:06:49;;;;;;;8.23;4.82;;;;;;;;;;6257430;23;20016;-82
2023/10/25 12:09:19;;;;;;;9.25;5.32;;;;;;;;;;6247457;23;20016;-81
2023/10/25 12:11:49;;;;;;;7.72;4.85;;;;;;;;;;6246949;23;20024;-82
2023/10/25 12:14:20;;;;;;;11.30;5.20;;;;;;;;;;6218916;23;20085;-82
2023/10/25 12:17:11;;;;;;;8.95;5.28;;;;;;;;;;6246765;23;20012;-82
2023/10/25 12:19:42;;;;;;;8.00;4.70;;;;;;;;;;6256137;23;20023;-82
2023/10/25 12:22:13;;;;;;;9.05;4.47;;;;;;;;;;6245824;23;20031;-82
2023/10/25 12:24:48;;;;;;;8.63;4.78;;;;;;;;;;6255399;22;20023;-82
2023/10/25 12:27:19;;;;;;;5.88;3.40;;;;;;;;;;6218688;23;20035;-82
2023/10/25 12:29:49;;;;;;;6.72;3.85;;;;;;;;;;6245144;23;20023;-83
2023/10/25 12:32:21;;;;;;;17.67;5.35;;;;;;;;;;6244709;23;20039;-78
2023/10/25 12:34:52;;;;;;;150.10;88.35;;;;;;;;;;6254938;23;20016;-80
2023/10/25 12:37:23;;;;;;;25.38;9.73;;;;;;;;;;6245309;23;20020;-79
2023/10/25 12:39:53;;;;;;;9.48;4.00;;;;;;;;;;6228349;23;20016;-78
2023/10/25 12:42:23;;;;;;;9.13;4.10;;;;;;;;;;6245380;23;20016;-80
2023/10/25 12:44:53;;;;;;;7.90;3.97;;;;;;;;;;6246014;23;20435;-78
2023/10/25 12:47:24;;;;;;;8.10;4.07;;;;;;;;;;6244735;23;20451;-80
2023/10/25 12:49:54;;;;;;;5.15;3.10;;;;;;;;;;6244642;23;20020;-80
2023/10/25 12:52:24;;;;;;;8.48;3.28;;;;;;;;;;6255592;23;20031;-78
2023/10/25 12:54:55;;;;;;;6.90;3.72;;;;;;;;;;6245136;23;20008;-79
2023/10/25 12:57:25;;;;;;;5.95;3.58;;;;;;;;;;6245491;23;20427;-80
2023/10/25 12:59:55;;;;;;;4.70;2.47;;;;;;;;;;6218566;23;20012;-80
2023/10/25 13:02:25;;;;;;;5.20;2.25;;;;;;;;;;6245169;23;20012;-78
2023/10/25 13:04:55;;;;;;;5.95;2.38;;;;;;;;;;6244731;23;20016;-82
2023/10/25 13:07:25;;;;;;;6.50;2.88;;;;;;;;;;6244585;23;20347;-80
2023/10/25 13:09:55;;;;;;;5.22;2.47;;;;;;;;;;6218041;23;20023;-81
2023/10/25 13:12:25;;;;;;;4.18;2.28;;;;;;;;;;6217680;23;20020;-80
2023/10/25 13:14:56;;;;;;;9.13;5.45;;;;;;;;;;6255811;23;20008;-80
2023/10/25 13:17:27;;;;;;;5.03;3.33;;;;;;;;;;6218709;23;20036;-80
2023/10/25 13:19:57;;;;;;;3.97;2.13;;;;;;;;;;6245386;23;20020;-80
2023/10/25 13:22:27;;;;;;;5.20;2.45;;;;;;;;;;6218584;23;20016;-80
2023/10/25 13:24:58;;;;;;;4.35;2.20;;;;;;;;;;6218811;22;20446;-79
2023/10/25 13:27:28;;;;;;;3.92;2.13;;;;;;;;;;6256594;23;20016;-79
2023/10/25 13:29:58;;;;;;;5.20;3.45;;;;;;;;;;6247392;23;20023;-79
2023/10/25 13:32:29;;;;;;;7.07;4.65;;;;;;;;;;6220647;23;20020;-81
2023/10/25 13:35:03;;;;;;;8.25;3.75;;;;;;;;;;6257145;23;20019;-81
2023/10/25 13:37:33;;;;;;;7.57;3.45;;;;;;;;;;6257324;23;20343;-82
2023/10/25 13:40:13;;;;;;;6.47;3.33;;;;;;;;;;6246444;23;20008;-81
2023/10/25 13:42:44;;;;;;;7.15;3.20;;;;;;;;;;6257298;23;20008;-80
2023/10/25 13:45:14;;;;;;;5.18;3.20;;;;;;;;;;6246444;23;20016;-81
2023/10/25 13:47:44;;;;;;;4.35;2.70;;;;;;;;;;6221120;23;20012;-80
2023/10/25 13:50:23;;;;;;;5.32;3.03;;;;;;;;;;6257738;23;20023;-80
2023/10/25 13:53:12;;;;;;;5.57;3.10;;;;;;;;;;6223628;23;20032;-82
2023/10/25 13:55:57;;;;;;;4.30;2.55;;;;;;;;;;6266641;23;20012;-83
2023/10/25 13:58:28;;;;;;;6.20;3.90;;;;;;;;;;6255637;23;20012;-82
2023/10/25 14:01:05;;;;;;;4.28;2.88;;;;;;;;;;6262365;23;20335;-80
2023/10/25 14:03:48;;;;;;;5.65;3.08;;;;;;;;;;6129897;23;20021;-81
2023/10/25 14:06:19;;;;;;;4.80;3.33;;;;;;;;;;6102707;23;20070;-80
2023/10/25 14:08:51;;;;;;;2.88;2.08;;;;;;;;;;6129351;23;20073;-82
2023/10/25 14:11:21;;;;;;;3.50;2.13;;;;;;;;;;6126713;23;20022;-80
2023/10/25 14:13:54;;;;;;;3.60;2.03;;;;;;;;;;6137411;23;20481;-80
2023/10/25 14:16:26;;;;;;;3.42;1.40;;;;;;;;;;6102094;23;20021;-82
2023/10/25 14:18:56;;;;;;;3.85;1.90;;;;;;;;;;6140643;23;20018;-79
2023/10/25 14:21:27;;;;;;;2.35;1.63;;;;;;;;;;6100995;23;20121;-80
2023/10/25 14:23:57;;;;;;;23.38;8.60;;;;;;;;;;6124273;23;20026;-81
2023/10/25 14:26:27;;;;;;;6.28;1.83;;;;;;;;;;6145842;23;20361;-81
2023/10/25 14:28:58;;;;;;;8.65;1.90;;;;;;;;;;6154727;23;20028;-81
2023/10/25 14:31:27;;;;;;;3.53;1.58;;;;;;;;;;6154520;23;20021;-81
2023/10/25 14:33:58;;;;;;;3.25;1.55;;;;;;;;;;6153807;23;20025;-81
2023/10/25 14:36:31;;;;;;;3.10;1.52;;;;;;;;;;6153403;23;20022;-82
2023/10/25 14:39:03;;;;;;;3.75;1.63;;;;;;;;;;6163451;23;20024;-84
2023/10/25 14:41:38;;;;;;;3.75;1.85;;;;;;;;;;6217647;23;20119;-81
2023/10/25 14:44:09;;;;;;;3.30;1.52;;;;;;;;;;6230269;23;20015;-83
2023/10/25 14:46:39;;;;;;;4.85;2.00;;;;;;;;;;6245551;23;20012;-81
2023/10/25 14:49:10;;;;;;;2.90;1.70;;;;;;;;;;6256211;23;20064;-84
2023/10/25 14:51:45;;;;;;;2.60;1.33;;;;;;;;;;6256183;23;20304;-81
2023/10/25 14:54:15;;;;;;;4.93;2.20;;;;;;;;;;6256782;23;20019;-81
2023/10/25 14:56:45;;;;;;;4.78;2.75;;;;;;;;;;6245056;23;20019;-81
2023/10/25 14:59:15;;;;;;;3.50;1.63;;;;;;;;;;6246491;23;20043;-84